sensor_id;sensor_type;location;lat;lon;timestamp;P1;durP1;ratioP1;P2;durP2;ratioP2
15629;SDS011;7914;50.842;0.166;2024-03-08T00:01:43;65.90;;;25.13;;
15629;SDS011;7914;50.842;0.166;2024-03-08T00:04:10;60.83;;;24.15;;
15629;SDS011;7914;50.842;0.166;2024-03-08T00:06:35;58.97;;;24.15;;
15629;SDS011;7914;50.842;0.166;2024-03-08T00:09:01;54.45;;;22.33;;
15629;SDS011;7914;50.842;0.166;2024-03-08T00:11:27;63.55;;;24.95;;
15629;SDS011;7914;50.842;0.166;2024-03-08T00:13:53;59.38;;;24.85;;
15629;SDS011;7914;50.842;0.166;2024-03-08T00:16:19;55.80;;;24.50;;
15629;SDS011;7914;50.842;0.166;2024-03-08T00:18:44;59.60;;;23.13;;
15629;SDS011;7914;50.842;0.166;2024-03-08T00:21:10;59.75;;;23.98;;
15629;SDS011;7914;50.842;0.166;2024-03-08T00:23:37;50.65;;;20.33;;
15629;SDS011;7914;50.842;0.166;2024-03-08T00:26:06;56.15;;;24.20;;
15629;SDS011;7914;50.842;0.166;2024-03-08T00:28:32;55.08;;;23.80;;
15629;SDS011;7914;50.842;0.166;2024-03-08T00:30:59;63.95;;;25.90;;
15629;SDS011;7914;50.842;0.166;2024-03-08T00:33:25;55.30;;;22.48;;
15629;SDS011;7914;50.842;0.166;2024-03-08T00:35:52;56.72;;;26.45;;
15629;SDS011;7914;50.842;0.166;2024-03-08T00:38:19;59.97;;;23.27;;
15629;SDS011;7914;50.842;0.166;2024-03-08T00:40:45;63.50;;;24.75;;
15629;SDS011;7914;50.842;0.166;2024-03-08T00:43:11;58.05;;;23.83;;
15629;SDS011;7914;50.842;0.166;2024-03-08T00:45:36;61.60;;;24.42;;
15629;SDS011;7914;50.842;0.166;2024-03-08T00:48:02;60.35;;;25.23;;
15629;SDS011;7914;50.842;0.166;2024-03-08T00:50:29;63.35;;;24.55;;
15629;SDS011;7914;50.842;0.166;2024-03-08T00:52:55;57.28;;;22.70;;
15629;SDS011;7914;50.842;0.166;2024-03-08T00:55:21;60.42;;;24.48;;
15629;SDS011;7914;50.842;0.166;2024-03-08T00:57:47;56.25;;;23.92;;
15629;SDS011;7914;50.842;0.166;2024-03-08T01:00:13;58.45;;;25.70;;
15629;SDS011;7914;50.842;0.166;2024-03-08T01:02:39;58.42;;;23.85;;
15629;SDS011;7914;50.842;0.166;2024-03-08T01:05:05;59.22;;;25.20;;
15629;SDS011;7914;50.842;0.166;2024-03-08T01:07:33;56.88;;;22.40;;
15629;SDS011;7914;50.842;0.166;2024-03-08T01:10:00;54.63;;;22.13;;
15629;SDS011;7914;50.842;0.166;2024-03-08T01:12:28;56.38;;;21.35;;
15629;SDS011;7914;50.842;0.166;2024-03-08T01:14:54;52.00;;;21.35;;
15629;SDS011;7914;50.842;0.166;2024-03-08T01:17:20;54.40;;;22.73;;
15629;SDS011;7914;50.842;0.166;2024-03-08T01:19:46;53.08;;;22.38;;
15629;SDS011;7914;50.842;0.166;2024-03-08T01:22:12;51.17;;;19.75;;
15629;SDS011;7914;50.842;0.166;2024-03-08T01:24:38;49.40;;;21.95;;
15629;SDS011;7914;50.842;0.166;2024-03-08T01:27:03;53.83;;;21.77;;
15629;SDS011;7914;50.842;0.166;2024-03-08T01:29:29;51.70;;;22.30;;
15629;SDS011;7914;50.842;0.166;2024-03-08T01:31:55;51.35;;;22.02;;
15629;SDS011;7914;50.842;0.166;2024-03-08T01:34:21;48.92;;;20.63;;
15629;SDS011;7914;50.842;0.166;2024-03-08T01:36:50;52.30;;;21.52;;
15629;SDS011;7914;50.842;0.166;2024-03-08T01:39:16;53.95;;;23.40;;
15629;SDS011;7914;50.842;0.166;2024-03-08T01:41:42;56.20;;;22.50;;
15629;SDS011;7914;50.842;0.166;2024-03-08T01:44:07;50.78;;;22.27;;
15629;SDS011;7914;50.842;0.166;2024-03-08T01:46:34;53.45;;;23.60;;
15629;SDS011;7914;50.842;0.166;2024-03-08T01:49:00;47.78;;;20.17;;
15629;SDS011;7914;50.842;0.166;2024-03-08T01:51:27;54.70;;;22.08;;
15629;SDS011;7914;50.842;0.166;2024-03-08T01:53:54;51.42;;;22.15;;
15629;SDS011;7914;50.842;0.166;2024-03-08T01:56:21;49.83;;;20.75;;
15629;SDS011;7914;50.842;0.166;2024-03-08T01:58:46;49.30;;;21.42;;
15629;SDS011;7914;50.842;0.166;2024-03-08T02:01:13;48.47;;;20.10;;
15629;SDS011;7914;50.842;0.166;2024-03-08T02:06:09;54.95;;;19.77;;
15629;SDS011;7914;50.842;0.166;2024-03-08T02:08:39;55.35;;;21.13;;
15629;SDS011;7914;50.842;0.166;2024-03-08T02:11:08;51.50;;;20.80;;
15629;SDS011;7914;50.842;0.166;2024-03-08T02:13:34;54.17;;;21.08;;
15629;SDS011;7914;50.842;0.166;2024-03-08T02:16:00;52.97;;;20.83;;
15629;SDS011;7914;50.842;0.166;2024-03-08T02:18:27;50.22;;;20.90;;
15629;SDS011;7914;50.842;0.166;2024-03-08T02:20:54;51.92;;;20.42;;
15629;SDS011;7914;50.842;0.166;2024-03-08T02:23:20;52.03;;;20.92;;
15629;SDS011;7914;50.842;0.166;2024-03-08T02:25:47;55.70;;;21.77;;
15629;SDS011;7914;50.842;0.166;2024-03-08T02:28:13;53.50;;;20.45;;
15629;SDS011;7914;50.842;0.166;2024-03-08T02:30:48;53.55;;;20.48;;
15629;SDS011;7914;50.842;0.166;2024-03-08T02:33:24;54.35;;;21.80;;
15629;SDS011;7914;50.842;0.166;2024-03-08T02:35:51;51.35;;;18.65;;
15629;SDS011;7914;50.842;0.166;2024-03-08T02:38:20;55.20;;;23.08;;
15629;SDS011;7914;50.842;0.166;2024-03-08T02:40:48;51.05;;;21.08;;
15629;SDS011;7914;50.842;0.166;2024-03-08T02:43:15;46.67;;;20.38;;
15629;SDS011;7914;50.842;0.166;2024-03-08T02:45:42;45.13;;;18.17;;
15629;SDS011;7914;50.842;0.166;2024-03-08T02:48:12;52.40;;;20.42;;
15629;SDS011;7914;50.842;0.166;2024-03-08T02:50:38;45.17;;;19.65;;
15629;SDS011;7914;50.842;0.166;2024-03-08T02:53:13;51.28;;;19.65;;
15629;SDS011;7914;50.842;0.166;2024-03-08T02:55:39;51.00;;;20.20;;
15629;SDS011;7914;50.842;0.166;2024-03-08T02:58:06;46.50;;;18.65;;
15629;SDS011;7914;50.842;0.166;2024-03-08T03:00:38;49.42;;;18.38;;
15629;SDS011;7914;50.842;0.166;2024-03-08T03:03:16;41.05;;;16.85;;
15629;SDS011;7914;50.842;0.166;2024-03-08T03:05:42;41.92;;;14.57;;
15629;SDS011;7914;50.842;0.166;2024-03-08T03:08:08;42.67;;;17.15;;
15629;SDS011;7914;50.842;0.166;2024-03-08T03:10:36;44.92;;;17.70;;
15629;SDS011;7914;50.842;0.166;2024-03-08T03:13:02;50.67;;;20.13;;
15629;SDS011;7914;50.842;0.166;2024-03-08T03:15:29;44.55;;;17.70;;
15629;SDS011;7914;50.842;0.166;2024-03-08T03:17:55;42.80;;;17.60;;
15629;SDS011;7914;50.842;0.166;2024-03-08T03:20:27;45.35;;;17.13;;
15629;SDS011;7914;50.842;0.166;2024-03-08T03:22:57;43.72;;;17.98;;
15629;SDS011;7914;50.842;0.166;2024-03-08T03:25:26;44.45;;;18.67;;
15629;SDS011;7914;50.842;0.166;2024-03-08T03:27:59;38.97;;;14.95;;
15629;SDS011;7914;50.842;0.166;2024-03-08T03:30:25;42.22;;;17.52;;
15629;SDS011;7914;50.842;0.166;2024-03-08T03:32:58;40.72;;;17.73;;
15629;SDS011;7914;50.842;0.166;2024-03-08T03:35:25;41.95;;;15.45;;
15629;SDS011;7914;50.842;0.166;2024-03-08T03:37:52;35.47;;;16.05;;
15629;SDS011;7914;50.842;0.166;2024-03-08T03:40:36;37.10;;;14.15;;
15629;SDS011;7914;50.842;0.166;2024-03-08T03:46:43;36.00;;;12.93;;
15629;SDS011;7914;50.842;0.166;2024-03-08T03:49:09;39.10;;;16.35;;
15629;SDS011;7914;50.842;0.166;2024-03-08T03:51:35;40.85;;;15.40;;
15629;SDS011;7914;50.842;0.166;2024-03-08T03:54:00;31.90;;;12.77;;
15629;SDS011;7914;50.842;0.166;2024-03-08T03:56:28;38.92;;;15.32;;
15629;SDS011;7914;50.842;0.166;2024-03-08T03:58:55;42.97;;;16.45;;
15629;SDS011;7914;50.842;0.166;2024-03-08T04:01:21;42.80;;;16.67;;
15629;SDS011;7914;50.842;0.166;2024-03-08T04:03:47;37.20;;;15.88;;
15629;SDS011;7914;50.842;0.166;2024-03-08T04:06:13;33.13;;;13.50;;
15629;SDS011;7914;50.842;0.166;2024-03-08T04:08:39;37.40;;;15.70;;
15629;SDS011;7914;50.842;0.166;2024-03-08T04:11:05;40.70;;;17.63;;
15629;SDS011;7914;50.842;0.166;2024-03-08T04:13:32;33.95;;;15.13;;
15629;SDS011;7914;50.842;0.166;2024-03-08T04:15:58;33.42;;;14.60;;
15629;SDS011;7914;50.842;0.166;2024-03-08T04:18:23;44.45;;;16.60;;
15629;SDS011;7914;50.842;0.166;2024-03-08T04:20:49;42.50;;;18.10;;
15629;SDS011;7914;50.842;0.166;2024-03-08T04:23:24;46.15;;;18.58;;
15629;SDS011;7914;50.842;0.166;2024-03-08T04:25:50;37.85;;;15.95;;
15629;SDS011;7914;50.842;0.166;2024-03-08T04:28:16;37.47;;;15.93;;
15629;SDS011;7914;50.842;0.166;2024-03-08T04:30:42;38.17;;;14.48;;
15629;SDS011;7914;50.842;0.166;2024-03-08T04:33:07;28.00;;;12.50;;
15629;SDS011;7914;50.842;0.166;2024-03-08T04:35:33;48.70;;;17.23;;
15629;SDS011;7914;50.842;0.166;2024-03-08T04:37:59;35.90;;;15.35;;
15629;SDS011;7914;50.842;0.166;2024-03-08T04:40:25;36.97;;;15.27;;
15629;SDS011;7914;50.842;0.166;2024-03-08T04:42:51;45.97;;;17.27;;
15629;SDS011;7914;50.842;0.166;2024-03-08T04:45:29;31.40;;;13.48;;
15629;SDS011;7914;50.842;0.166;2024-03-08T04:47:55;35.80;;;14.57;;
15629;SDS011;7914;50.842;0.166;2024-03-08T04:50:22;38.08;;;16.70;;
15629;SDS011;7914;50.842;0.166;2024-03-08T04:52:48;39.13;;;15.75;;
15629;SDS011;7914;50.842;0.166;2024-03-08T04:55:14;32.03;;;15.50;;
15629;SDS011;7914;50.842;0.166;2024-03-08T04:57:40;41.72;;;15.88;;
15629;SDS011;7914;50.842;0.166;2024-03-08T05:00:07;36.83;;;15.18;;
15629;SDS011;7914;50.842;0.166;2024-03-08T05:02:36;38.63;;;19.05;;
15629;SDS011;7914;50.842;0.166;2024-03-08T05:05:04;39.63;;;16.85;;
15629;SDS011;7914;50.842;0.166;2024-03-08T05:07:36;34.80;;;15.77;;
15629;SDS011;7914;50.842;0.166;2024-03-08T05:10:02;33.08;;;13.80;;
15629;SDS011;7914;50.842;0.166;2024-03-08T05:12:28;32.40;;;12.10;;
15629;SDS011;7914;50.842;0.166;2024-03-08T05:14:54;38.65;;;16.05;;
15629;SDS011;7914;50.842;0.166;2024-03-08T05:17:20;33.42;;;14.18;;
15629;SDS011;7914;50.842;0.166;2024-03-08T05:19:46;36.40;;;16.77;;
15629;SDS011;7914;50.842;0.166;2024-03-08T05:22:11;36.25;;;15.85;;
15629;SDS011;7914;50.842;0.166;2024-03-08T05:24:38;37.28;;;14.77;;
15629;SDS011;7914;50.842;0.166;2024-03-08T05:27:04;38.90;;;15.85;;
15629;SDS011;7914;50.842;0.166;2024-03-08T05:29:30;30.52;;;12.93;;
15629;SDS011;7914;50.842;0.166;2024-03-08T05:31:55;40.20;;;17.25;;
15629;SDS011;7914;50.842;0.166;2024-03-08T05:34:22;42.10;;;14.73;;
15629;SDS011;7914;50.842;0.166;2024-03-08T05:36:49;32.63;;;15.27;;
15629;SDS011;7914;50.842;0.166;2024-03-08T05:39:16;36.55;;;14.00;;
15629;SDS011;7914;50.842;0.166;2024-03-08T05:41:42;31.08;;;13.63;;
15629;SDS011;7914;50.842;0.166;2024-03-08T05:44:09;36.08;;;13.75;;
15629;SDS011;7914;50.842;0.166;2024-03-08T05:46:35;39.88;;;15.10;;
15629;SDS011;7914;50.842;0.166;2024-03-08T05:49:02;39.63;;;14.50;;
15629;SDS011;7914;50.842;0.166;2024-03-08T05:51:34;30.83;;;12.70;;
15629;SDS011;7914;50.842;0.166;2024-03-08T05:54:01;31.92;;;13.73;;
15629;SDS011;7914;50.842;0.166;2024-03-08T05:59:02;37.47;;;14.52;;
15629;SDS011;7914;50.842;0.166;2024-03-08T06:01:28;34.63;;;16.25;;
15629;SDS011;7914;50.842;0.166;2024-03-08T06:03:54;37.35;;;12.25;;
15629;SDS011;7914;50.842;0.166;2024-03-08T06:06:23;35.33;;;13.93;;
15629;SDS011;7914;50.842;0.166;2024-03-08T06:08:49;35.03;;;15.45;;
15629;SDS011;7914;50.842;0.166;2024-03-08T06:11:16;30.92;;;11.90;;
15629;SDS011;7914;50.842;0.166;2024-03-08T06:13:43;32.63;;;13.63;;
15629;SDS011;7914;50.842;0.166;2024-03-08T06:16:09;34.65;;;14.63;;
15629;SDS011;7914;50.842;0.166;2024-03-08T06:18:35;37.75;;;16.85;;
15629;SDS011;7914;50.842;0.166;2024-03-08T06:21:07;38.88;;;14.68;;
15629;SDS011;7914;50.842;0.166;2024-03-08T06:23:37;37.78;;;15.98;;
15629;SDS011;7914;50.842;0.166;2024-03-08T06:26:03;36.58;;;13.98;;
15629;SDS011;7914;50.842;0.166;2024-03-08T06:28:30;33.70;;;16.98;;
15629;SDS011;7914;50.842;0.166;2024-03-08T06:30:57;41.10;;;14.68;;
15629;SDS011;7914;50.842;0.166;2024-03-08T06:33:27;29.55;;;12.63;;
15629;SDS011;7914;50.842;0.166;2024-03-08T06:35:53;31.73;;;11.65;;
15629;SDS011;7914;50.842;0.166;2024-03-08T06:40:51;27.70;;;12.38;;
15629;SDS011;7914;50.842;0.166;2024-03-08T06:43:17;36.38;;;17.05;;
15629;SDS011;7914;50.842;0.166;2024-03-08T06:45:46;41.53;;;16.30;;
15629;SDS011;7914;50.842;0.166;2024-03-08T06:48:31;38.17;;;15.35;;
15629;SDS011;7914;50.842;0.166;2024-03-08T06:50:57;35.47;;;14.27;;
15629;SDS011;7914;50.842;0.166;2024-03-08T06:53:22;39.00;;;15.35;;
15629;SDS011;7914;50.842;0.166;2024-03-08T06:55:50;34.45;;;14.27;;
15629;SDS011;7914;50.842;0.166;2024-03-08T06:58:19;41.38;;;16.90;;
15629;SDS011;7914;50.842;0.166;2024-03-08T07:00:46;39.53;;;17.60;;
15629;SDS011;7914;50.842;0.166;2024-03-08T07:03:35;32.03;;;10.88;;
15629;SDS011;7914;50.842;0.166;2024-03-08T07:06:07;39.22;;;14.63;;
15629;SDS011;7914;50.842;0.166;2024-03-08T07:08:36;39.00;;;17.23;;
15629;SDS011;7914;50.842;0.166;2024-03-08T07:11:01;36.10;;;15.20;;
15629;SDS011;7914;50.842;0.166;2024-03-08T07:13:28;24.38;;;12.07;;
15629;SDS011;7914;50.842;0.166;2024-03-08T07:15:54;38.95;;;16.23;;
15629;SDS011;7914;50.842;0.166;2024-03-08T07:18:20;40.22;;;15.57;;
15629;SDS011;7914;50.842;0.166;2024-03-08T07:20:47;45.80;;;16.33;;
15629;SDS011;7914;50.842;0.166;2024-03-08T07:23:14;35.22;;;15.00;;
15629;SDS011;7914;50.842;0.166;2024-03-08T07:26:00;36.70;;;14.93;;
15629;SDS011;7914;50.842;0.166;2024-03-08T07:28:26;38.30;;;15.88;;
15629;SDS011;7914;50.842;0.166;2024-03-08T07:30:52;35.35;;;14.98;;
15629;SDS011;7914;50.842;0.166;2024-03-08T07:33:32;40.75;;;14.35;;
15629;SDS011;7914;50.842;0.166;2024-03-08T07:35:59;39.10;;;15.20;;
15629;SDS011;7914;50.842;0.166;2024-03-08T07:38:25;41.95;;;15.65;;
15629;SDS011;7914;50.842;0.166;2024-03-08T07:40:50;39.85;;;16.88;;
15629;SDS011;7914;50.842;0.166;2024-03-08T07:43:16;29.58;;;12.05;;
15629;SDS011;7914;50.842;0.166;2024-03-08T07:45:42;34.60;;;14.05;;
15629;SDS011;7914;50.842;0.166;2024-03-08T07:48:07;36.13;;;13.82;;
15629;SDS011;7914;50.842;0.166;2024-03-08T07:50:36;32.03;;;11.00;;
15629;SDS011;7914;50.842;0.166;2024-03-08T07:53:02;35.15;;;14.32;;
15629;SDS011;7914;50.842;0.166;2024-03-08T07:55:29;31.73;;;11.75;;
15629;SDS011;7914;50.842;0.166;2024-03-08T07:57:56;34.53;;;15.27;;
15629;SDS011;7914;50.842;0.166;2024-03-08T08:00:22;31.10;;;12.85;;
15629;SDS011;7914;50.842;0.166;2024-03-08T08:03:00;35.97;;;15.02;;
15629;SDS011;7914;50.842;0.166;2024-03-08T08:05:26;35.53;;;15.52;;
15629;SDS011;7914;50.842;0.166;2024-03-08T08:07:52;35.60;;;15.32;;
15629;SDS011;7914;50.842;0.166;2024-03-08T08:10:27;30.40;;;13.13;;
15629;SDS011;7914;50.842;0.166;2024-03-08T08:12:53;40.30;;;16.33;;
15629;SDS011;7914;50.842;0.166;2024-03-08T08:15:19;42.17;;;15.68;;
15629;SDS011;7914;50.842;0.166;2024-03-08T08:17:45;32.67;;;14.40;;
15629;SDS011;7914;50.842;0.166;2024-03-08T08:20:12;38.78;;;14.93;;
15629;SDS011;7914;50.842;0.166;2024-03-08T08:22:39;37.85;;;14.98;;
15629;SDS011;7914;50.842;0.166;2024-03-08T08:25:05;34.38;;;14.80;;
15629;SDS011;7914;50.842;0.166;2024-03-08T08:27:35;35.95;;;14.07;;
15629;SDS011;7914;50.842;0.166;2024-03-08T08:30:05;33.45;;;14.98;;
15629;SDS011;7914;50.842;0.166;2024-03-08T08:32:34;26.27;;;11.80;;
15629;SDS011;7914;50.842;0.166;2024-03-08T08:35:04;35.55;;;14.30;;
15629;SDS011;7914;50.842;0.166;2024-03-08T08:37:31;30.73;;;13.13;;
15629;SDS011;7914;50.842;0.166;2024-03-08T08:39:57;29.40;;;12.15;;
15629;SDS011;7914;50.842;0.166;2024-03-08T08:42:23;27.25;;;13.30;;
15629;SDS011;7914;50.842;0.166;2024-03-08T08:44:50;26.50;;;11.15;;
15629;SDS011;7914;50.842;0.166;2024-03-08T08:47:17;32.80;;;14.35;;
15629;SDS011;7914;50.842;0.166;2024-03-08T08:49:44;34.17;;;13.52;;
15629;SDS011;7914;50.842;0.166;2024-03-08T08:52:11;27.30;;;10.32;;
15629;SDS011;7914;50.842;0.166;2024-03-08T08:54:38;26.98;;;12.75;;
15629;SDS011;7914;50.842;0.166;2024-03-08T08:57:03;30.25;;;13.38;;
15629;SDS011;7914;50.842;0.166;2024-03-08T08:59:35;28.70;;;12.82;;
15629;SDS011;7914;50.842;0.166;2024-03-08T09:02:05;22.27;;;9.25;;
15629;SDS011;7914;50.842;0.166;2024-03-08T09:04:37;35.40;;;14.38;;
15629;SDS011;7914;50.842;0.166;2024-03-08T09:07:03;28.83;;;12.38;;
15629;SDS011;7914;50.842;0.166;2024-03-08T09:09:31;33.50;;;14.18;;
15629;SDS011;7914;50.842;0.166;2024-03-08T09:11:57;31.50;;;13.45;;
15629;SDS011;7914;50.842;0.166;2024-03-08T09:14:23;32.47;;;15.15;;
15629;SDS011;7914;50.842;0.166;2024-03-08T09:16:51;29.23;;;12.38;;
15629;SDS011;7914;50.842;0.166;2024-03-08T09:19:17;29.15;;;12.10;;
15629;SDS011;7914;50.842;0.166;2024-03-08T09:21:44;23.65;;;10.65;;
15629;SDS011;7914;50.842;0.166;2024-03-08T09:24:10;36.40;;;14.77;;
15629;SDS011;7914;50.842;0.166;2024-03-08T09:26:36;28.98;;;13.75;;
15629;SDS011;7914;50.842;0.166;2024-03-08T09:29:04;31.13;;;13.30;;
15629;SDS011;7914;50.842;0.166;2024-03-08T09:31:32;37.03;;;15.98;;
15629;SDS011;7914;50.842;0.166;2024-03-08T09:33:57;26.10;;;12.85;;
15629;SDS011;7914;50.842;0.166;2024-03-08T09:36:23;26.35;;;12.75;;
15629;SDS011;7914;50.842;0.166;2024-03-08T09:38:49;24.00;;;10.98;;
15629;SDS011;7914;50.842;0.166;2024-03-08T09:41:15;30.80;;;13.82;;
15629;SDS011;7914;50.842;0.166;2024-03-08T09:43:41;30.25;;;14.65;;
15629;SDS011;7914;50.842;0.166;2024-03-08T09:46:07;27.63;;;13.82;;
15629;SDS011;7914;50.842;0.166;2024-03-08T09:48:33;28.10;;;13.40;;
15629;SDS011;7914;50.842;0.166;2024-03-08T09:51:08;30.00;;;12.00;;
15629;SDS011;7914;50.842;0.166;2024-03-08T09:53:39;31.67;;;12.73;;
15629;SDS011;7914;50.842;0.166;2024-03-08T09:56:05;35.10;;;15.57;;
15629;SDS011;7914;50.842;0.166;2024-03-08T09:58:31;26.98;;;11.90;;
15629;SDS011;7914;50.842;0.166;2024-03-08T10:00:59;27.15;;;12.98;;
15629;SDS011;7914;50.842;0.166;2024-03-08T10:03:30;29.08;;;13.68;;
15629;SDS011;7914;50.842;0.166;2024-03-08T10:05:57;27.77;;;14.80;;
15629;SDS011;7914;50.842;0.166;2024-03-08T10:08:29;28.63;;;12.88;;
15629;SDS011;7914;50.842;0.166;2024-03-08T10:10:58;27.63;;;13.68;;
15629;SDS011;7914;50.842;0.166;2024-03-08T10:13:24;32.00;;;12.77;;
15629;SDS011;7914;50.842;0.166;2024-03-08T10:15:52;30.65;;;15.50;;
15629;SDS011;7914;50.842;0.166;2024-03-08T10:18:19;26.80;;;11.48;;
15629;SDS011;7914;50.842;0.166;2024-03-08T10:20:44;27.10;;;11.95;;
15629;SDS011;7914;50.842;0.166;2024-03-08T10:23:11;28.63;;;12.57;;
15629;SDS011;7914;50.842;0.166;2024-03-08T10:25:37;27.77;;;10.95;;
15629;SDS011;7914;50.842;0.166;2024-03-08T10:28:04;33.67;;;12.50;;
15629;SDS011;7914;50.842;0.166;2024-03-08T10:30:30;26.45;;;11.88;;
15629;SDS011;7914;50.842;0.166;2024-03-08T10:32:56;28.42;;;14.02;;
15629;SDS011;7914;50.842;0.166;2024-03-08T10:35:21;30.67;;;14.40;;
15629;SDS011;7914;50.842;0.166;2024-03-08T10:37:49;31.35;;;13.73;;
15629;SDS011;7914;50.842;0.166;2024-03-08T10:40:24;30.02;;;12.30;;
15629;SDS011;7914;50.842;0.166;2024-03-08T10:42:53;26.63;;;11.40;;
15629;SDS011;7914;50.842;0.166;2024-03-08T10:48:04;24.85;;;12.77;;
15629;SDS011;7914;50.842;0.166;2024-03-08T10:50:35;22.23;;;9.75;;
15629;SDS011;7914;50.842;0.166;2024-03-08T10:53:01;26.55;;;12.43;;
15629;SDS011;7914;50.842;0.166;2024-03-08T10:55:47;22.20;;;10.23;;
15629;SDS011;7914;50.842;0.166;2024-03-08T10:58:14;29.75;;;13.02;;
15629;SDS011;7914;50.842;0.166;2024-03-08T11:00:41;26.75;;;11.43;;
15629;SDS011;7914;50.842;0.166;2024-03-08T11:03:07;21.02;;;11.77;;
15629;SDS011;7914;50.842;0.166;2024-03-08T11:05:54;22.73;;;12.02;;
15629;SDS011;7914;50.842;0.166;2024-03-08T11:08:20;22.42;;;10.60;;
15629;SDS011;7914;50.842;0.166;2024-03-08T11:10:49;19.50;;;8.90;;
15629;SDS011;7914;50.842;0.166;2024-03-08T11:13:36;27.63;;;11.55;;
15629;SDS011;7914;50.842;0.166;2024-03-08T11:16:11;31.35;;;12.38;;
15629;SDS011;7914;50.842;0.166;2024-03-08T11:18:59;24.52;;;11.95;;
15629;SDS011;7914;50.842;0.166;2024-03-08T11:21:32;26.83;;;12.05;;
15629;SDS011;7914;50.842;0.166;2024-03-08T11:24:02;23.77;;;10.10;;
15629;SDS011;7914;50.842;0.166;2024-03-08T11:26:31;23.35;;;11.82;;
15629;SDS011;7914;50.842;0.166;2024-03-08T11:35:05;27.73;;;10.35;;
15629;SDS011;7914;50.842;0.166;2024-03-08T11:37:33;28.65;;;12.85;;
15629;SDS011;7914;50.842;0.166;2024-03-08T11:40:11;19.65;;;10.55;;
15629;SDS011;7914;50.842;0.166;2024-03-08T11:42:47;22.67;;;10.15;;
15629;SDS011;7914;50.842;0.166;2024-03-08T11:45:17;25.40;;;10.80;;
15629;SDS011;7914;50.842;0.166;2024-03-08T11:47:46;22.52;;;10.02;;
15629;SDS011;7914;50.842;0.166;2024-03-08T11:50:12;25.58;;;10.82;;
15629;SDS011;7914;50.842;0.166;2024-03-08T11:52:39;26.45;;;10.27;;
15629;SDS011;7914;50.842;0.166;2024-03-08T11:55:05;26.92;;;11.40;;
15629;SDS011;7914;50.842;0.166;2024-03-08T11:57:31;28.77;;;12.27;;
15629;SDS011;7914;50.842;0.166;2024-03-08T11:59:58;26.17;;;11.10;;
15629;SDS011;7914;50.842;0.166;2024-03-08T12:02:32;23.95;;;13.18;;
15629;SDS011;7914;50.842;0.166;2024-03-08T12:05:04;26.88;;;12.65;;
15629;SDS011;7914;50.842;0.166;2024-03-08T12:07:35;22.20;;;10.05;;
15629;SDS011;7914;50.842;0.166;2024-03-08T12:10:14;22.95;;;12.20;;
15629;SDS011;7914;50.842;0.166;2024-03-08T12:12:47;21.63;;;9.05;;
15629;SDS011;7914;50.842;0.166;2024-03-08T12:15:28;28.98;;;12.75;;
15629;SDS011;7914;50.842;0.166;2024-03-08T12:17:56;22.13;;;10.15;;
15629;SDS011;7914;50.842;0.166;2024-03-08T12:20:24;28.65;;;11.85;;
15629;SDS011;7914;50.842;0.166;2024-03-08T12:22:51;25.80;;;11.07;;
15629;SDS011;7914;50.842;0.166;2024-03-08T12:25:18;26.73;;;12.50;;
15629;SDS011;7914;50.842;0.166;2024-03-08T12:27:45;19.95;;;10.52;;
15629;SDS011;7914;50.842;0.166;2024-03-08T12:30:18;24.48;;;11.80;;
15629;SDS011;7914;50.842;0.166;2024-03-08T12:35:24;20.40;;;9.98;;
15629;SDS011;7914;50.842;0.166;2024-03-08T12:37:57;27.05;;;11.98;;
15629;SDS011;7914;50.842;0.166;2024-03-08T12:40:27;22.15;;;9.35;;
15629;SDS011;7914;50.842;0.166;2024-03-08T12:42:59;18.95;;;9.07;;
15629;SDS011;7914;50.842;0.166;2024-03-08T12:45:27;29.38;;;11.35;;
15629;SDS011;7914;50.842;0.166;2024-03-08T12:47:53;24.25;;;9.80;;
15629;SDS011;7914;50.842;0.166;2024-03-08T12:50:20;28.48;;;12.13;;
15629;SDS011;7914;50.842;0.166;2024-03-08T12:52:46;20.85;;;9.05;;
15629;SDS011;7914;50.842;0.166;2024-03-08T12:55:14;22.52;;;9.93;;
15629;SDS011;7914;50.842;0.166;2024-03-08T12:57:41;23.50;;;10.60;;
15629;SDS011;7914;50.842;0.166;2024-03-08T13:00:07;27.15;;;11.15;;
15629;SDS011;7914;50.842;0.166;2024-03-08T13:02:38;19.08;;;10.55;;
15629;SDS011;7914;50.842;0.166;2024-03-08T13:05:05;28.95;;;12.35;;
15629;SDS011;7914;50.842;0.166;2024-03-08T13:07:35;22.95;;;12.40;;
15629;SDS011;7914;50.842;0.166;2024-03-08T13:10:02;28.20;;;12.50;;
15629;SDS011;7914;50.842;0.166;2024-03-08T13:12:29;19.05;;;10.93;;
15629;SDS011;7914;50.842;0.166;2024-03-08T13:14:55;25.17;;;11.70;;
15629;SDS011;7914;50.842;0.166;2024-03-08T13:17:21;23.33;;;9.07;;
15629;SDS011;7914;50.842;0.166;2024-03-08T13:19:47;26.48;;;11.32;;
15629;SDS011;7914;50.842;0.166;2024-03-08T13:22:13;27.70;;;14.07;;
15629;SDS011;7914;50.842;0.166;2024-03-08T13:24:44;26.27;;;11.25;;
15629;SDS011;7914;50.842;0.166;2024-03-08T13:27:10;26.17;;;12.80;;
15629;SDS011;7914;50.842;0.166;2024-03-08T13:29:53;28.65;;;12.00;;
15629;SDS011;7914;50.842;0.166;2024-03-08T13:32:19;25.92;;;11.23;;
15629;SDS011;7914;50.842;0.166;2024-03-08T13:34:48;24.38;;;11.63;;
15629;SDS011;7914;50.842;0.166;2024-03-08T13:37:16;19.90;;;9.95;;
15629;SDS011;7914;50.842;0.166;2024-03-08T13:39:42;27.02;;;12.30;;
15629;SDS011;7914;50.842;0.166;2024-03-08T13:42:15;26.02;;;12.05;;
15629;SDS011;7914;50.842;0.166;2024-03-08T13:44:48;31.73;;;13.32;;
15629;SDS011;7914;50.842;0.166;2024-03-08T13:47:18;25.77;;;11.48;;
15629;SDS011;7914;50.842;0.166;2024-03-08T13:49:44;25.08;;;12.30;;
15629;SDS011;7914;50.842;0.166;2024-03-08T13:52:10;25.25;;;10.98;;
15629;SDS011;7914;50.842;0.166;2024-03-08T13:54:37;24.77;;;12.18;;
15629;SDS011;7914;50.842;0.166;2024-03-08T13:57:03;27.08;;;13.02;;
15629;SDS011;7914;50.842;0.166;2024-03-08T13:59:30;25.80;;;12.15;;
15629;SDS011;7914;50.842;0.166;2024-03-08T14:01:58;27.80;;;11.38;;
15629;SDS011;7914;50.842;0.166;2024-03-08T14:04:24;26.73;;;11.05;;
15629;SDS011;7914;50.842;0.166;2024-03-08T14:06:52;28.73;;;13.30;;
15629;SDS011;7914;50.842;0.166;2024-03-08T14:09:22;27.98;;;12.82;;
15629;SDS011;7914;50.842;0.166;2024-03-08T14:11:49;24.42;;;11.05;;
15629;SDS011;7914;50.842;0.166;2024-03-08T14:14:21;21.45;;;11.02;;
15629;SDS011;7914;50.842;0.166;2024-03-08T14:16:50;32.17;;;13.82;;
15629;SDS011;7914;50.842;0.166;2024-03-08T14:19:22;30.35;;;13.43;;
15629;SDS011;7914;50.842;0.166;2024-03-08T14:21:48;24.13;;;12.68;;
15629;SDS011;7914;50.842;0.166;2024-03-08T14:24:15;28.65;;;11.55;;
15629;SDS011;7914;50.842;0.166;2024-03-08T14:26:41;32.53;;;12.82;;
15629;SDS011;7914;50.842;0.166;2024-03-08T14:29:07;30.67;;;13.95;;
15629;SDS011;7914;50.842;0.166;2024-03-08T14:31:35;27.85;;;12.75;;
15629;SDS011;7914;50.842;0.166;2024-03-08T14:34:01;28.10;;;12.65;;
15629;SDS011;7914;50.842;0.166;2024-03-08T14:36:28;26.92;;;14.13;;
15629;SDS011;7914;50.842;0.166;2024-03-08T14:38:54;33.72;;;14.38;;
15629;SDS011;7914;50.842;0.166;2024-03-08T14:41:20;36.70;;;15.43;;
15629;SDS011;7914;50.842;0.166;2024-03-08T14:43:47;31.98;;;14.70;;
15629;SDS011;7914;50.842;0.166;2024-03-08T14:46:13;27.92;;;11.85;;
15629;SDS011;7914;50.842;0.166;2024-03-08T14:48:43;28.25;;;13.05;;
15629;SDS011;7914;50.842;0.166;2024-03-08T14:51:09;24.52;;;10.65;;
15629;SDS011;7914;50.842;0.166;2024-03-08T14:53:36;30.92;;;14.75;;
15629;SDS011;7914;50.842;0.166;2024-03-08T14:56:06;30.33;;;13.82;;
15629;SDS011;7914;50.842;0.166;2024-03-08T14:58:33;27.40;;;11.55;;
15629;SDS011;7914;50.842;0.166;2024-03-08T15:00:59;31.02;;;14.55;;
15629;SDS011;7914;50.842;0.166;2024-03-08T15:03:26;23.02;;;11.60;;